ETNN

Norvenich Airport

Germany
METAR ETNN 241920Z AUTO 07009KT 9999 // ////// M01/M09 Q1025 ///
Observed Flight Rules
Feb-24 @ 19:20 UTC (52 minutes ago)
Wind Visibility
70° at 9 knots 10,000+ meters
Temperatures Readings
Current -1°C / 30°F
Dewpoint -9°C / 16°F
Humidity 55%
Altimeter 30.27" Hg
Pressure 1025 hPa
Elevation 135
METAR ETNN 241920Z AUTO 07009KT 9999 // ////// M01/M09 Q1025 ///
Observed Flight Rules
Feb-24 @ 19:20 UTC
(52 minutes ago)
Wind Visibility
70° at 9 knots 10,000+ meters
Temperature Dewpoint
-1°C / 30°F -9°C / 16°F
Humidity Altimeter Pressure
55% 30.27" Hg 1025 hPa